Time;durP1;ratioP1;P1;durP2;ratioP2;P2;SDS_P1;SDS_P2;PMS_P1;PMS_P2;Temp;Humidity;BMP_temperature;BMP_pressure;BME280_temperature;BME280_humidity;BME280_pressure;Samples;Min_cycle;Max_cycle;Signal;HPM_P1;HPM_P2
2022/12/07 00:01:12;;;;;;;299.77;111.65;;;8.00;99.90;;;;;;5115585;28;20047;-76
2022/12/07 00:03:38;;;;;;;267.08;105.18;;;7.90;99.90;;;;;;5115894;28;20381;-76
2022/12/07 00:06:06;;;;;;;253.23;102.70;;;8.00;99.90;;;;;;5115442;28;20148;-75
2022/12/07 00:08:34;;;;;;;249.98;103.05;;;8.00;99.90;;;;;;5115580;28;20023;-77
2022/12/07 00:11:11;;;;;;;248.55;100.82;;;7.90;99.90;;;;;;5115047;28;20063;-76
2022/12/07 00:13:38;;;;;;;249.73;102.78;;;7.90;99.90;;;;;;5115660;28;20024;-76
2022/12/07 00:16:11;;;;;;;238.10;98.72;;;7.90;99.90;;;;;;5115363;28;20023;-76
2022/12/07 00:18:38;;;;;;;226.65;98.00;;;7.90;99.90;;;;;;5091629;28;20047;-76
2022/12/07 00:21:10;;;;;;;246.85;100.75;;;7.90;99.90;;;;;;5094853;28;20024;-76
2022/12/07 00:23:36;;;;;;;254.02;105.43;;;7.90;99.90;;;;;;5095013;28;20058;-76
2022/12/07 00:26:09;;;;;;;311.08;124.10;;;8.00;99.90;;;;;;5094721;28;20077;-76
2022/12/07 00:28:35;;;;;;;287.05;119.72;;;8.00;99.90;;;;;;5094994;28;20020;-76
2022/12/07 00:31:04;;;;;;;260.10;108.00;;;7.90;99.90;;;;;;5094780;28;20381;-76
2022/12/07 00:33:31;;;;;;;247.35;107.53;;;8.00;99.90;;;;;;5094710;28;20363;-76
2022/12/07 00:35:58;;;;;;;289.73;120.93;;;7.90;99.90;;;;;;5094733;28;20028;-76
2022/12/07 00:38:27;;;;;;;332.33;138.82;;;7.90;99.90;;;;;;5095102;28;20020;-76
2022/12/07 00:41:23;;;;;;;238.57;108.55;;;7.90;99.90;;;;;;5094678;28;20056;-76
2022/12/07 00:43:49;;;;;;;208.48;93.47;;;7.80;99.90;;;;;;5073847;28;20031;-76
2022/12/07 00:46:16;;;;;;;212.45;97.90;;;7.80;99.90;;;;;;5094477;28;20033;-76
2022/12/07 00:48:42;;;;;;;187.13;85.25;;;7.80;99.90;;;;;;5094905;28;20065;-76
2022/12/07 00:51:11;;;;;;;180.15;83.18;;;7.90;99.90;;;;;;5094197;28;20032;-76
2022/12/07 00:53:37;;;;;;;140.77;70.43;;;7.80;99.90;;;;;;5094616;28;20028;-76
2022/12/07 00:56:08;;;;;;;170.38;81.22;;;8.00;99.90;;;;;;5094172;28;20090;-76
2022/12/07 00:58:34;;;;;;;211.68;91.15;;;8.00;99.90;;;;;;5094355;28;20024;-76
2022/12/07 01:01:02;;;;;;;192.45;86.68;;;8.00;99.90;;;;;;5093977;28;20112;-76
2022/12/07 01:03:28;;;;;;;236.23;106.50;;;7.90;99.90;;;;;;5094226;28;20032;-76
2022/12/07 01:05:55;;;;;;;213.85;97.57;;;7.90;99.90;;;;;;5094133;28;20508;-76
2022/12/07 01:08:22;;;;;;;213.30;97.05;;;7.80;99.90;;;;;;5094256;28;20020;-76
2022/12/07 01:10:49;;;;;;;214.95;99.93;;;7.80;99.90;;;;;;5094083;28;20106;-76
2022/12/07 01:13:16;;;;;;;240.57;108.72;;;7.80;99.90;;;;;;5093979;28;20028;-76
2022/12/07 01:15:43;;;;;;;176.57;85.38;;;7.80;99.90;;;;;;5094266;28;20115;-76
2022/12/07 01:18:10;;;;;;;142.68;68.90;;;7.80;99.90;;;;;;5095220;28;20055;-76
2022/12/07 01:20:36;;;;;;;125.32;63.35;;;7.80;99.90;;;;;;5114558;28;20049;-76
2022/12/07 01:23:03;;;;;;;143.57;69.60;;;7.90;99.90;;;;;;5113836;28;20114;-76
2022/12/07 01:25:29;;;;;;;138.13;67.07;;;7.70;99.90;;;;;;5114871;28;20027;-76
2022/12/07 01:27:55;;;;;;;127.72;64.65;;;7.70;99.90;;;;;;5116210;28;20024;-76
2022/12/07 01:30:21;;;;;;;147.70;68.30;;;7.60;99.90;;;;;;5121411;28;20030;-76
2022/12/07 01:32:46;;;;;;;133.20;66.38;;;7.60;99.90;;;;;;5121193;28;20046;-76
2022/12/07 01:35:12;;;;;;;124.28;61.72;;;7.70;99.90;;;;;;5120903;28;20038;-76
2022/12/07 01:37:39;;;;;;;135.10;63.67;;;7.70;99.90;;;;;;5121137;28;20032;-76
2022/12/07 01:40:07;;;;;;;130.80;63.20;;;7.70;99.90;;;;;;5120931;28;20032;-76
2022/12/07 01:42:34;;;;;;;137.63;66.15;;;7.80;99.90;;;;;;5121239;28;20031;-76
2022/12/07 01:45:39;;;;;;;127.78;62.42;;;7.70;99.90;;;;;;5120758;28;20015;-76
2022/12/07 01:48:07;;;;;;;123.68;59.65;;;7.80;99.90;;;;;;5120798;28;20030;-76
2022/12/07 01:50:34;;;;;;;129.52;60.45;;;7.90;99.90;;;;;;5120971;28;20030;-76
2022/12/07 01:53:04;;;;;;;128.52;62.13;;;7.90;99.90;;;;;;5120910;28;20039;-76
2022/12/07 01:55:30;;;;;;;138.07;64.95;;;7.80;99.90;;;;;;5121125;28;20422;-76
2022/12/07 01:57:57;;;;;;;130.68;62.08;;;7.70;99.90;;;;;;5120877;28;20023;-77
2022/12/07 02:00:23;;;;;;;143.15;65.57;;;7.70;99.90;;;;;;5121172;28;20046;-77
2022/12/07 02:02:59;;;;;;;148.80;69.93;;;7.60;99.90;;;;;;5120786;28;20038;-76
2022/12/07 02:05:26;;;;;;;127.95;60.58;;;7.70;99.90;;;;;;5120905;28;20354;-76
2022/12/07 02:07:56;;;;;;;139.68;62.33;;;7.90;99.90;;;;;;5120891;28;20023;-76
2022/12/07 02:10:25;;;;;;;135.27;63.63;;;7.80;99.90;;;;;;5120793;28;20032;-76
2022/12/07 02:13:14;;;;;;;163.48;73.63;;;7.70;99.90;;;;;;5120681;28;20495;-76
2022/12/07 02:16:01;;;;;;;193.77;86.90;;;7.80;99.90;;;;;;5102855;28;20027;-76
2022/12/07 02:18:38;;;;;;;131.43;64.25;;;7.70;99.90;;;;;;5120609;28;20478;-76
2022/12/07 02:21:51;;;;;;;132.70;61.75;;;7.60;99.90;;;;;;5120557;28;20115;-76
2022/12/07 02:24:33;;;;;;;131.98;63.70;;;7.40;99.90;;;;;;5017715;28;20136;-76
2022/12/07 02:27:12;;;;;;;138.80;66.05;;;7.50;99.90;;;;;;5017441;28;20080;-76
2022/12/07 02:29:59;;;;;;;132.13;61.65;;;7.60;99.90;;;;;;5017841;28;20053;-76
2022/12/07 02:32:54;;;;;;;166.93;82.43;;;7.60;99.90;;;;;;5017646;28;20034;-76
2022/12/07 02:35:32;;;;;;;153.23;76.30;;;7.70;99.90;;;;;;5007293;28;20042;-76
2022/12/07 02:38:01;;;;;;;150.05;77.05;;;7.70;99.90;;;;;;5017431;28;20128;-76
2022/12/07 02:40:57;;;;;;;150.00;72.47;;;7.60;99.90;;;;;;4997930;28;20073;-76
2022/12/07 02:43:56;;;;;;;145.13;67.35;;;7.60;99.90;;;;;;5014720;28;20045;-76
2022/12/07 02:46:29;;;;;;;194.38;88.97;;;7.60;99.90;;;;;;4997381;28;20057;-76
2022/12/07 02:48:59;;;;;;;150.63;71.32;;;7.60;99.90;;;;;;5014333;28;20084;-76
2022/12/07 02:51:25;;;;;;;149.00;69.80;;;7.60;99.90;;;;;;5014378;28;20034;-76
2022/12/07 02:53:51;;;;;;;144.63;69.78;;;7.60;99.90;;;;;;5014423;28;20038;-76
2022/12/07 02:56:41;;;;;;;175.18;83.97;;;7.70;99.90;;;;;;5014278;28;20034;-76
2022/12/07 02:59:37;;;;;;;171.32;79.18;;;7.70;99.90;;;;;;5099830;28;20047;-76
2022/12/07 03:02:13;;;;;;;154.35;75.45;;;7.70;99.90;;;;;;5116680;28;20066;-76
2022/12/07 03:04:50;;;;;;;142.43;68.95;;;7.80;99.90;;;;;;5117137;28;20047;-76
2022/12/07 03:07:53;;;;;;;153.88;73.32;;;7.80;99.90;;;;;;5116588;28;20062;-76
2022/12/07 03:10:25;;;;;;;162.85;71.70;;;7.70;99.90;;;;;;5116628;28;20073;-76
2022/12/07 03:13:07;;;;;;;142.15;68.68;;;7.70;99.90;;;;;;5116717;28;20024;-76
2022/12/07 03:15:40;;;;;;;150.10;68.15;;;7.80;99.90;;;;;;5116901;28;20465;-76
2022/12/07 03:18:08;;;;;;;144.02;71.25;;;7.70;99.90;;;;;;5116415;28;20028;-76
2022/12/07 03:20:37;;;;;;;144.25;66.80;;;7.70;99.90;;;;;;5116654;28;20468;-76
2022/12/07 03:23:09;;;;;;;125.50;59.35;;;7.60;99.90;;;;;;5116140;28;20508;-76
2022/12/07 03:25:40;;;;;;;117.70;59.03;;;7.50;99.90;;;;;;5116659;28;20516;-76
2022/12/07 03:28:08;;;;;;;108.80;55.00;;;7.70;99.90;;;;;;5116241;28;20497;-76
2022/12/07 03:31:02;;;;;;;110.72;54.17;;;7.70;99.90;;;;;;5116451;28;20058;-76
2022/12/07 03:33:54;;;;;;;108.60;54.00;;;7.70;99.90;;;;;;5104176;28;20032;-76
2022/12/07 03:36:28;;;;;;;111.72;55.60;;;7.70;99.90;;;;;;5116399;28;20055;-76
2022/12/07 03:39:11;;;;;;;112.50;53.72;;;7.70;99.90;;;;;;5116166;28;20074;-76
2022/12/07 03:41:38;;;;;;;104.18;48.83;;;7.80;99.90;;;;;;5116572;28;20023;-76
2022/12/07 03:44:05;;;;;;;97.22;48.42;;;7.80;99.90;;;;;;5116010;28;20084;-76
2022/12/07 03:46:43;;;;;;;101.97;49.83;;;7.70;99.90;;;;;;5097811;28;20038;-75
2022/12/07 03:49:21;;;;;;;98.47;50.20;;;7.70;99.90;;;;;;5115940;28;20019;-75
2022/12/07 03:52:02;;;;;;;116.30;53.80;;;7.60;99.90;;;;;;5115922;28;20080;-75
2022/12/07 03:54:46;;;;;;;102.72;49.58;;;7.60;99.90;;;;;;5116114;28;20544;-75
2022/12/07 03:57:13;;;;;;;91.40;47.45;;;7.50;99.90;;;;;;5115695;28;20115;-76
2022/12/07 03:59:40;;;;;;;92.50;47.85;;;7.50;99.90;;;;;;5115805;28;20469;-75
2022/12/07 04:02:07;;;;;;;85.47;45.67;;;7.50;99.90;;;;;;5115666;28;20031;-76
2022/12/07 04:04:34;;;;;;;80.05;42.92;;;7.50;99.90;;;;;;5115765;28;20080;-76
2022/12/07 04:07:00;;;;;;;86.65;45.38;;;7.40;99.90;;;;;;5115457;28;20098;-75
2022/12/07 04:09:26;;;;;;;80.13;42.97;;;7.50;99.90;;;;;;5115649;28;20016;-75
2022/12/07 04:11:52;;;;;;;75.78;40.90;;;7.60;99.90;;;;;;5115620;28;20385;-75
2022/12/07 04:14:18;;;;;;;77.45;40.95;;;7.50;99.90;;;;;;5115703;28;20144;-75
2022/12/07 04:16:53;;;;;;;67.53;37.22;;;7.50;99.90;;;;;;5115682;28;20024;-75
2022/12/07 04:19:23;;;;;;;74.90;38.95;;;7.60;99.90;;;;;;5115352;28;20051;-75
2022/12/07 04:21:49;;;;;;;75.28;41.85;;;7.60;99.90;;;;;;5115402;28;20066;-75
2022/12/07 04:24:15;;;;;;;75.53;43.03;;;7.50;99.90;;;;;;5115317;28;20020;-75
2022/12/07 04:26:42;;;;;;;66.45;38.00;;;7.40;99.90;;;;;;5115577;28;20027;-75
2022/12/07 04:29:09;;;;;;;66.13;37.05;;;7.40;99.90;;;;;;5115250;28;20373;-76
2022/12/07 04:31:36;;;;;;;70.00;36.97;;;7.30;99.90;;;;;;5115403;28;20023;-76
2022/12/07 04:34:02;;;;;;;78.95;38.90;;;7.40;99.90;;;;;;5115054;28;20039;-76
2022/12/07 04:36:28;;;;;;;77.63;41.20;;;7.30;99.90;;;;;;5115364;28;20028;-76
2022/12/07 04:38:55;;;;;;;73.88;38.13;;;7.30;99.90;;;;;;5114895;28;20489;-76
2022/12/07 04:41:28;;;;;;;70.43;38.88;;;7.20;99.90;;;;;;5115144;28;20371;-76
2022/12/07 04:43:55;;;;;;;83.82;40.95;;;7.20;99.90;;;;;;5114972;28;20473;-76
2022/12/07 04:46:23;;;;;;;67.57;37.90;;;7.30;99.90;;;;;;5114844;28;20088;-76
2022/12/07 04:48:50;;;;;;;68.90;38.08;;;7.20;99.90;;;;;;5115049;28;20107;-76
2022/12/07 04:51:20;;;;;;;70.35;41.42;;;7.30;99.90;;;;;;5114584;28;20071;-76
2022/12/07 04:53:46;;;;;;;67.22;38.50;;;7.30;99.90;;;;;;5114930;28;20030;-76
2022/12/07 04:56:12;;;;;;;74.13;38.67;;;7.30;99.90;;;;;;5114666;28;20032;-76
2022/12/07 04:58:38;;;;;;;72.82;39.60;;;7.40;99.90;;;;;;5114783;28;20076;-76
2022/12/07 05:01:04;;;;;;;79.40;40.65;;;7.40;99.90;;;;;;5096185;28;20039;-76
2022/12/07 05:03:29;;;;;;;119.55;60.90;;;7.30;99.90;;;;;;5114118;28;20156;-75
2022/12/07 05:05:55;;;;;;;110.93;58.42;;;7.20;99.90;;;;;;5114457;28;20027;-76
2022/12/07 05:08:21;;;;;;;103.28;55.35;;;7.20;99.90;;;;;;5114663;28;20023;-76
2022/12/07 05:10:49;;;;;;;81.88;42.13;;;7.20;99.90;;;;;;5114652;28;20024;-76
2022/12/07 05:13:15;;;;;;;80.78;42.63;;;7.30;99.90;;;;;;5114556;28;20123;-76
2022/12/07 05:15:43;;;;;;;67.25;36.20;;;7.30;99.90;;;;;;5114875;28;20035;-76
2022/12/07 05:18:12;;;;;;;66.18;37.72;;;7.30;99.90;;;;;;5114445;28;20473;-76
2022/12/07 05:20:39;;;;;;;59.78;33.22;;;7.30;99.90;;;;;;5114488;28;20055;-76
2022/12/07 05:23:05;;;;;;;56.45;33.65;;;7.30;99.90;;;;;;5114233;28;20027;-76
2022/12/07 05:25:31;;;;;;;58.42;32.55;;;7.30;99.90;;;;;;5114510;28;20477;-76
2022/12/07 05:27:57;;;;;;;49.53;30.30;;;7.40;99.90;;;;;;5114356;28;20088;-76
2022/12/07 05:30:24;;;;;;;73.18;35.97;;;7.40;99.90;;;;;;5114736;28;20032;-76
2022/12/07 05:32:51;;;;;;;54.72;31.83;;;7.30;99.90;;;;;;5114317;28;20027;-76
2022/12/07 05:35:17;;;;;;;51.90;29.27;;;7.30;99.90;;;;;;5114052;28;20043;-76
2022/12/07 05:37:44;;;;;;;50.17;28.90;;;7.30;99.90;;;;;;5114500;28;20434;-76
2022/12/07 05:40:11;;;;;;;55.63;27.92;;;7.30;99.90;;;;;;5114319;28;20176;-76
2022/12/07 05:42:37;;;;;;;60.97;32.40;;;7.20;99.90;;;;;;5095990;28;20039;-77
2022/12/07 05:45:04;;;;;;;59.28;32.40;;;7.30;99.90;;;;;;5113903;28;20031;-76
2022/12/07 05:47:30;;;;;;;54.67;28.05;;;7.20;99.90;;;;;;5114280;28;20111;-76
2022/12/07 05:49:56;;;;;;;52.63;28.77;;;7.20;99.90;;;;;;5113914;28;20046;-76
2022/12/07 05:52:22;;;;;;;55.08;32.17;;;7.10;99.90;;;;;;5114369;28;20023;-76
2022/12/07 05:54:48;;;;;;;48.53;30.13;;;7.10;99.90;;;;;;5114374;28;20508;-76
2022/12/07 05:57:14;;;;;;;53.15;29.42;;;7.10;99.90;;;;;;5113894;28;20024;-76
2022/12/07 05:59:40;;;;;;;46.33;27.77;;;7.20;99.90;;;;;;5114214;28;20032;-76
2022/12/07 06:02:10;;;;;;;46.28;28.08;;;7.20;99.90;;;;;;5114177;28;20038;-77
2022/12/07 06:04:44;;;;;;;45.78;26.83;;;7.30;99.90;;;;;;5114023;28;20032;-76
2022/12/07 06:07:13;;;;;;;51.28;29.33;;;7.20;99.90;;;;;;5114032;28;20027;-77
2022/12/07 06:09:38;;;;;;;47.55;26.88;;;7.10;99.90;;;;;;5113848;28;20016;-76
2022/12/07 06:14:50;;;;;;;39.45;24.25;;;7.20;99.90;;;;;;5115781;28;20031;-76
2022/12/07 06:17:16;;;;;;;36.50;21.90;;;7.20;99.90;;;;;;5118363;28;20035;-76
2022/12/07 06:19:42;;;;;;;48.65;24.83;;;7.20;99.90;;;;;;5117795;28;20401;-76
2022/12/07 06:22:10;;;;;;;47.55;24.15;;;7.20;99.90;;;;;;5117496;28;20058;-76
2022/12/07 06:24:36;;;;;;;39.53;24.63;;;7.10;99.90;;;;;;5114057;28;20462;-77
2022/12/07 06:27:02;;;;;;;46.17;25.92;;;7.20;99.90;;;;;;5117526;28;20111;-76
2022/12/07 06:29:28;;;;;;;50.28;27.02;;;7.30;99.90;;;;;;5117563;28;20376;-76
2022/12/07 06:31:54;;;;;;;51.25;28.85;;;7.30;99.90;;;;;;5117521;28;20032;-76
2022/12/07 06:34:22;;;;;;;56.53;31.08;;;7.30;99.90;;;;;;5117456;28;20027;-76
2022/12/07 06:36:51;;;;;;;57.60;30.65;;;7.30;99.90;;;;;;5117585;28;20492;-76
2022/12/07 06:39:21;;;;;;;76.90;38.03;;;7.20;99.90;;;;;;5110566;28;20032;-76
2022/12/07 06:41:51;;;;;;;70.78;40.17;;;7.30;99.90;;;;;;5101456;27;20116;-76
2022/12/07 06:44:18;;;;;;;71.80;39.35;;;7.20;99.90;;;;;;5107914;28;20024;-76
2022/12/07 06:46:44;;;;;;;85.80;41.97;;;7.20;99.90;;;;;;5114371;27;20038;-76
2022/12/07 06:49:10;;;;;;;68.75;38.05;;;7.20;99.90;;;;;;5112807;27;20039;-76
2022/12/07 06:51:40;;;;;;;80.25;39.30;;;7.20;99.90;;;;;;5101393;27;20028;-76
2022/12/07 06:54:10;;;;;;;79.53;39.60;;;7.20;99.90;;;;;;5122378;27;20035;-76
2022/12/07 06:56:36;;;;;;;71.97;37.35;;;7.10;99.90;;;;;;5113697;27;20028;-76
2022/12/07 06:59:03;;;;;;;58.95;36.70;;;7.10;99.90;;;;;;5106567;27;20107;-76
2022/12/07 07:01:29;;;;;;;61.05;34.30;;;7.10;99.90;;;;;;5111051;27;20457;-76
2022/12/07 07:03:55;;;;;;;60.13;34.53;;;7.10;99.90;;;;;;5099443;28;20021;-76
2022/12/07 07:06:21;;;;;;;71.40;40.90;;;7.20;99.90;;;;;;5102101;28;20626;-77
2022/12/07 07:08:47;;;;;;;67.68;38.83;;;7.20;99.90;;;;;;5107727;27;20491;-76
2022/12/07 07:11:13;;;;;;;65.28;36.45;;;7.10;99.90;;;;;;5111299;27;20027;-76
2022/12/07 07:13:39;;;;;;;62.88;37.95;;;7.10;99.90;;;;;;5115600;27;20020;-75
2022/12/07 07:16:06;;;;;;;65.85;36.05;;;7.10;99.90;;;;;;5117346;27;20063;-76
2022/12/07 07:18:33;;;;;;;60.45;35.63;;;7.20;99.90;;;;;;5117675;27;20084;-76
2022/12/07 07:20:59;;;;;;;68.45;38.97;;;7.10;99.90;;;;;;5118621;27;20106;-76
2022/12/07 07:23:25;;;;;;;74.05;45.90;;;7.20;99.90;;;;;;5113189;27;20063;-74
2022/12/07 07:25:51;;;;;;;66.82;39.88;;;7.10;99.90;;;;;;5106089;28;20374;-74
2022/12/07 07:28:17;;;;;;;67.72;43.25;;;7.10;99.90;;;;;;5107530;27;20020;-74
2022/12/07 07:30:43;;;;;;;75.07;42.50;;;7.20;99.90;;;;;;5105039;28;20023;-74
2022/12/07 07:33:10;;;;;;;66.20;40.92;;;7.30;99.90;;;;;;5116225;28;20031;-74
2022/12/07 07:35:36;;;;;;;91.97;51.33;;;7.40;99.90;;;;;;5117133;28;20027;-74
2022/12/07 07:38:03;;;;;;;70.53;41.63;;;7.40;99.90;;;;;;5116068;28;20059;-74
2022/12/07 07:40:29;;;;;;;76.10;47.80;;;7.40;99.90;;;;;;5116074;28;20062;-74
2022/12/07 07:42:55;;;;;;;65.97;40.40;;;7.30;99.90;;;;;;5115662;28;20080;-74
2022/12/07 07:45:23;;;;;;;73.57;41.75;;;7.30;99.90;;;;;;5116096;28;20042;-74
2022/12/07 07:47:50;;;;;;;88.95;53.08;;;7.40;99.90;;;;;;5115542;28;20030;-74
2022/12/07 07:50:18;;;;;;;114.95;67.20;;;7.20;99.90;;;;;;5115510;28;20378;-74
2022/12/07 07:52:44;;;;;;;120.70;74.90;;;7.20;99.90;;;;;;5116067;28;20427;-74
2022/12/07 07:55:11;;;;;;;106.15;59.60;;;7.30;99.90;;;;;;5115709;28;20497;-74
2022/12/07 07:57:38;;;;;;;98.82;56.03;;;7.40;99.90;;;;;;5115939;28;20031;-74
2022/12/07 08:00:06;;;;;;;108.95;60.00;;;7.40;99.90;;;;;;5106240;28;20039;-74
2022/12/07 08:02:38;;;;;;;95.82;53.58;;;7.30;99.90;;;;;;5100775;28;20028;-74
2022/12/07 08:05:05;;;;;;;75.03;42.30;;;7.30;99.90;;;;;;5112313;28;20104;-74
2022/12/07 08:07:30;;;;;;;84.35;45.25;;;7.40;99.90;;;;;;5116499;28;20023;-74
2022/12/07 08:09:56;;;;;;;77.20;43.17;;;7.30;99.90;;;;;;5116815;27;20368;-74
2022/12/07 08:12:22;;;;;;;72.55;40.75;;;7.20;99.90;;;;;;5116564;28;20030;-74
2022/12/07 08:14:48;;;;;;;84.82;42.50;;;7.20;99.90;;;;;;5116409;28;20421;-74
2022/12/07 08:17:14;;;;;;;180.77;75.43;;;7.20;99.90;;;;;;5107845;28;20039;-74
2022/12/07 08:19:40;;;;;;;267.50;104.43;;;7.20;99.90;;;;;;5104224;27;20131;-75
2022/12/07 08:22:06;;;;;;;286.33;116.05;;;7.30;99.90;;;;;;5117803;27;20190;-74
2022/12/07 08:24:35;;;;;;;272.88;106.38;;;7.40;99.90;;;;;;5115488;27;20027;-74
2022/12/07 08:27:02;;;;;;;152.63;67.07;;;7.40;99.90;;;;;;5104705;27;20035;-73
2022/12/07 08:29:28;;;;;;;169.02;73.05;;;7.40;99.90;;;;;;5095719;28;20105;-73
2022/12/07 08:31:54;;;;;;;115.20;54.35;;;7.40;99.90;;;;;;5097880;28;20432;-73
2022/12/07 08:34:20;;;;;;;135.60;60.95;;;7.40;99.90;;;;;;5116011;28;20457;-74
2022/12/07 08:36:46;;;;;;;152.27;65.45;;;7.50;99.90;;;;;;5115928;28;20089;-75
2022/12/07 08:39:12;;;;;;;82.55;41.67;;;7.50;99.90;;;;;;5114411;27;20118;-74
2022/12/07 08:41:38;;;;;;;105.38;51.78;;;7.60;99.90;;;;;;5106029;27;20031;-73
2022/12/07 08:44:04;;;;;;;91.15;49.78;;;7.70;99.90;;;;;;5076484;28;20024;-74
2022/12/07 08:46:38;;;;;;;76.70;45.55;;;7.80;99.90;;;;;;5094338;28;20103;-74
2022/12/07 08:49:30;;;;;;;87.32;47.60;;;7.80;99.90;;;;;;5094617;28;20020;-73
2022/12/07 08:51:56;;;;;;;90.65;51.70;;;7.80;99.90;;;;;;5094291;28;20555;-73
2022/12/07 08:54:22;;;;;;;92.53;53.65;;;7.80;99.90;;;;;;5094475;28;20024;-73
2022/12/07 08:56:50;;;;;;;103.75;60.97;;;7.80;99.90;;;;;;5094534;28;20027;-74
2022/12/07 08:59:18;;;;;;;136.32;78.80;;;7.90;99.90;;;;;;5093711;28;20119;-74
2022/12/07 09:01:44;;;;;;;128.30;73.03;;;8.00;99.90;;;;;;5099138;27;20035;-72
2022/12/07 09:04:10;;;;;;;135.43;75.57;;;8.00;99.90;;;;;;5122337;27;20054;-74
2022/12/07 09:06:37;;;;;;;136.75;77.57;;;8.00;99.90;;;;;;5110443;27;20023;-73
2022/12/07 09:09:03;;;;;;;125.47;73.50;;;8.00;99.90;;;;;;5107660;27;20028;-77
2022/12/07 09:11:30;;;;;;;116.30;69.78;;;8.00;99.90;;;;;;5108342;27;20028;-77
2022/12/07 09:13:56;;;;;;;133.02;79.45;;;8.00;99.90;;;;;;5093640;28;20028;-77
2022/12/07 09:16:22;;;;;;;133.70;80.13;;;7.90;99.90;;;;;;5100807;28;20034;-77
2022/12/07 09:18:48;;;;;;;141.25;84.32;;;8.00;99.90;;;;;;5126885;27;20438;-75
2022/12/07 09:21:14;;;;;;;154.43;89.18;;;8.10;99.90;;;;;;5134934;27;20145;-75
2022/12/07 09:23:42;;;;;;;155.65;90.18;;;8.20;99.90;;;;;;5135006;27;20030;-74
2022/12/07 09:26:08;;;;;;;186.23;102.93;;;8.20;99.90;;;;;;5134714;27;20041;-75
2022/12/07 09:28:34;;;;;;;183.05;102.25;;;8.40;99.90;;;;;;5134549;28;20023;-74
2022/12/07 09:31:02;;;;;;;186.57;103.55;;;8.40;99.90;;;;;;5112337;28;20027;-74
2022/12/07 09:33:28;;;;;;;170.70;93.38;;;8.60;99.90;;;;;;5105416;28;20292;-75
2022/12/07 09:35:53;;;;;;;149.52;86.63;;;8.60;99.90;;;;;;5111374;28;20354;-75
2022/12/07 09:38:20;;;;;;;135.15;78.15;;;8.50;99.90;;;;;;5113440;28;20381;-75
2022/12/07 09:40:47;;;;;;;130.63;74.50;;;8.60;99.90;;;;;;5113042;28;20163;-75
2022/12/07 09:43:24;;;;;;;110.25;64.20;;;8.60;99.90;;;;;;5112920;28;20088;-74
2022/12/07 09:45:54;;;;;;;116.65;66.63;;;8.80;99.90;;;;;;5090355;28;20031;-74
2022/12/07 09:48:25;;;;;;;121.53;68.28;;;8.90;99.90;;;;;;5091958;28;20103;-74
2022/12/07 09:50:54;;;;;;;98.68;58.28;;;9.00;99.90;;;;;;5110339;27;20461;-74
2022/12/07 09:53:28;;;;;;;85.07;53.55;;;9.00;99.90;;;;;;5125858;27;20110;-74
2022/12/07 09:55:54;;;;;;;83.35;50.30;;;9.00;99.90;;;;;;5129312;27;20058;-74
2022/12/07 09:58:26;;;;;;;85.30;51.28;;;9.10;99.90;;;;;;5130415;27;20023;-74
2022/12/07 10:01:07;;;;;;;74.57;43.60;;;9.20;99.90;;;;;;5130569;27;20573;-75
2022/12/07 10:03:35;;;;;;;58.75;37.72;;;9.30;99.90;;;;;;5131413;27;20030;-75
2022/12/07 10:06:02;;;;;;;62.88;38.45;;;9.20;99.90;;;;;;5129649;27;20020;-74
2022/12/07 10:08:28;;;;;;;63.20;38.63;;;9.30;99.90;;;;;;5127741;27;20041;-73
2022/12/07 10:10:57;;;;;;;64.18;39.72;;;9.20;99.90;;;;;;5135466;27;20027;-73
2022/12/07 10:13:43;;;;;;;67.30;40.53;;;9.20;99.90;;;;;;5112816;27;20382;-73
2022/12/07 10:16:24;;;;;;;60.97;37.72;;;9.20;99.90;;;;;;5118772;28;20484;-74
2022/12/07 10:18:51;;;;;;;56.97;35.00;;;9.10;99.90;;;;;;5109909;27;20623;-74
2022/12/07 10:21:25;;;;;;;72.00;43.80;;;9.10;99.90;;;;;;5123695;27;20068;-75
2022/12/07 10:24:10;;;;;;;99.63;56.90;;;9.20;99.90;;;;;;5124806;27;20494;-74
2022/12/07 10:26:47;;;;;;;97.38;57.55;;;9.10;99.90;;;;;;5119570;27;20027;-74
2022/12/07 10:29:36;;;;;;;82.07;48.65;;;9.10;99.90;;;;;;5123775;27;20350;-74
2022/12/07 10:32:13;;;;;;;87.03;50.25;;;9.10;99.90;;;;;;5127287;27;20085;-74
2022/12/07 10:34:40;;;;;;;114.55;62.85;;;9.20;99.90;;;;;;5125541;27;20066;-75
2022/12/07 10:37:27;;;;;;;80.72;48.22;;;9.10;99.90;;;;;;5119877;27;20028;-74
2022/12/07 10:39:56;;;;;;;71.88;43.55;;;9.00;99.90;;;;;;5105538;28;20495;-74
2022/12/07 10:42:31;;;;;;;63.05;38.42;;;8.90;99.90;;;;;;5102822;28;20081;-73
2022/12/07 10:45:30;;;;;;;66.95;40.42;;;9.00;99.90;;;;;;5097308;28;20487;-74
2022/12/07 10:48:16;;;;;;;44.50;29.02;;;8.90;99.90;;;;;;5067951;28;20091;-75
2022/12/07 10:50:57;;;;;;;40.47;25.85;;;9.00;99.90;;;;;;5097288;28;20028;-74
2022/12/07 10:53:34;;;;;;;71.30;42.53;;;9.10;99.90;;;;;;5097753;28;20028;-75
2022/12/07 10:56:11;;;;;;;67.75;37.80;;;9.00;99.90;;;;;;5097780;28;20020;-74
2022/12/07 10:59:21;;;;;;;52.40;33.38;;;8.90;99.90;;;;;;5097258;28;20116;-74
2022/12/07 11:01:59;;;;;;;51.92;31.33;;;8.90;99.90;;;;;;5096189;28;20089;-75
2022/12/07 11:04:30;;;;;;;37.88;24.42;;;9.00;99.90;;;;;;5097280;28;20043;-75
2022/12/07 11:07:39;;;;;;;40.13;25.27;;;9.00;99.90;;;;;;5097347;28;20393;-74
2022/12/07 11:10:18;;;;;;;37.38;23.73;;;9.00;99.90;;;;;;5109596;28;20020;-76
2022/12/07 11:13:09;;;;;;;39.35;24.77;;;8.90;99.90;;;;;;5117656;28;20028;-76
2022/12/07 11:15:53;;;;;;;;;;;8.80;99.90;;;;;;5117654;28;20019;-75
2022/12/07 11:18:28;;;;;;;57.17;35.95;;;8.80;99.90;;;;;;5117332;28;19951;-76
2022/12/07 11:21:34;;;;;;;63.50;38.33;;;8.80;99.90;;;;;;5116480;28;20038;-75
2022/12/07 11:24:19;;;;;;;73.53;43.15;;;8.90;99.90;;;;;;5118735;27;20028;-75
2022/12/07 11:27:04;;;;;;;47.78;29.27;;;8.90;99.90;;;;;;5108607;27;20024;-75
2022/12/07 11:29:35;;;;;;;51.45;31.30;;;9.00;99.90;;;;;;5106924;27;20032;-76
2022/12/07 11:32:57;;;;;;;44.83;27.85;;;9.00;99.90;;;;;;5114272;28;20016;-75
2022/12/07 11:35:45;;;;;;;44.08;26.92;;;9.00;99.90;;;;;;5116246;28;20123;-75
2022/12/07 11:38:16;;;;;;;38.85;23.90;;;9.10;99.90;;;;;;5116701;28;20125;-75
2022/12/07 11:40:56;;;;;;;40.15;25.30;;;9.10;99.90;;;;;;5116363;28;20022;-74
2022/12/07 11:43:27;;;;;;;39.97;26.50;;;9.00;99.90;;;;;;5114769;28;20110;-73
2022/12/07 11:46:10;;;;;;;32.63;22.20;;;9.10;99.90;;;;;;5115835;28;20058;-74
2022/12/07 11:48:53;;;;;;;40.00;24.95;;;9.20;99.90;;;;;;5116215;28;20058;-73
2022/12/07 11:52:00;;;;;;;44.95;28.67;;;9.20;99.90;;;;;;5114458;28;20024;-73
2022/12/07 11:54:35;;;;;;;45.53;28.50;;;9.10;99.90;;;;;;5116008;28;20023;-74
2022/12/07 11:57:16;;;;;;;47.17;30.05;;;9.30;99.90;;;;;;5115834;28;20545;-73
2022/12/07 11:59:49;;;;;;;46.20;29.10;;;9.20;99.90;;;;;;5115684;28;20032;-74
2022/12/07 12:02:35;;;;;;;53.83;30.75;;;9.30;99.90;;;;;;5115682;28;20498;-73
2022/12/07 12:05:23;;;;;;;57.75;33.85;;;9.40;99.90;;;;;;5123513;27;20020;-74
2022/12/07 12:08:13;;;;;;;52.85;33.00;;;9.50;99.90;;;;;;5122149;27;20024;-74
2022/12/07 12:10:55;;;;;;;53.97;32.50;;;9.40;99.90;;;;;;5119261;27;20048;-74
2022/12/07 12:13:39;;;;;;;57.28;33.58;;;9.30;99.90;;;;;;5108529;27;20088;-75
2022/12/07 12:16:38;;;;;;;46.45;29.70;;;9.40;99.90;;;;;;5095203;28;20031;-75
2022/12/07 12:19:43;;;;;;;42.70;27.45;;;9.40;99.90;;;;;;5094802;28;20060;-75
2022/12/07 12:22:19;;;;;;;41.78;27.50;;;9.30;99.90;;;;;;5028869;28;20154;-75
2022/12/07 12:24:50;;;;;;;41.45;26.95;;;9.30;99.90;;;;;;5032468;28;20490;-75
2022/12/07 12:27:30;;;;;;;50.58;31.15;;;9.40;99.90;;;;;;5032342;28;20034;-75
2022/12/07 12:30:00;;;;;;;59.17;34.28;;;9.50;99.90;;;;;;5032287;28;20026;-75
2022/12/07 12:32:41;;;;;;;55.50;35.80;;;9.50;99.90;;;;;;5032344;28;20041;-74
2022/12/07 12:35:31;;;;;;;46.25;28.55;;;9.50;99.90;;;;;;5032307;28;20499;-75
2022/12/07 12:38:53;;;;;;;51.20;28.50;;;9.50;99.90;;;;;;5032172;28;20044;-75
2022/12/07 12:41:39;;;;;;;39.33;25.67;;;9.50;99.90;;;;;;4992763;28;20093;-75
2022/12/07 12:44:20;;;;;;;45.30;27.88;;;9.40;99.90;;;;;;4992506;28;20026;-75
2022/12/07 12:46:58;;;;;;;43.28;26.88;;;9.30;99.90;;;;;;4992745;28;20092;-75
2022/12/07 12:49:27;;;;;;;45.80;28.33;;;9.40;99.90;;;;;;4990955;28;20595;-75
2022/12/07 12:51:58;;;;;;;56.20;29.85;;;9.40;99.90;;;;;;4986638;28;20038;-75
2022/12/07 12:54:25;;;;;;;;;;;9.40;99.90;;;;;;5020360;28;20038;-74
2022/12/07 12:57:10;;;;;;;47.22;27.65;;;9.50;99.90;;;;;;5031979;28;20395;-75
2022/12/07 12:59:39;;;;;;;61.70;35.83;;;9.40;99.90;;;;;;5025638;28;20502;-75
2022/12/07 13:02:30;;;;;;;64.00;37.78;;;9.30;99.90;;;;;;5031792;28;20040;-75